Time;durP1;ratioP1;P1;durP2;ratioP2;P2;SDS_P1;SDS_P2;PMS_P1;PMS_P2;Temp;Humidity;BMP_temperature;BMP_pressure;BME280_temperature;BME280_humidity;BME280_pressure;Samples;Min_cycle;Max_cycle;Signal;HPM_P1;HPM_P2
2022/06/12 00:00:04;;;;;;;;;;;;;;;;;;4969951;28;19918;-58
2022/06/12 00:02:30;;;;;;;;;;;;;;;;;;4964583;28;19922;-60
2022/06/12 00:04:55;;;;;;;;;;;;;;;;;;4972317;28;19969;-59
2022/06/12 00:07:21;;;;;;;;;;;;;;;;;;4968722;28;20044;-58
2022/06/12 00:09:46;;;;;;;;;;;;;;;;;;4973441;28;19971;-59
2022/06/12 00:12:11;;;;;;;;;;;;;;;;;;4969108;28;19988;-58
2022/06/12 00:14:36;;;;;;;;;;;;;;;;;;4970995;28;19941;-59
2022/06/12 00:17:01;;;;;;;;;;;;;;;;;;4973799;28;20042;-59
2022/06/12 00:19:28;;;;;;;;;;;;;;;;;;4959032;28;19929;-59
2022/06/12 00:21:54;;;;;;;;;;;;;;;;;;4974581;28;20438;-60
2022/06/12 00:24:19;;;;;;;;;;;;;;;;;;4968418;28;19918;-60
2022/06/12 00:26:44;;;;;;;;;;;;;;;;;;4967980;28;20022;-58
2022/06/12 00:29:11;;;;;;;;;;;;;;;;;;4955161;28;21429;-58
2022/06/12 00:31:37;;;;;;;;;;;;;;;;;;4969728;28;19937;-59
2022/06/12 00:34:02;;;;;;;;;;;;;;;;;;4974008;28;19918;-57
2022/06/12 00:36:27;;;;;;;;;;;;;;;;;;4969125;28;19919;-58
2022/06/12 00:38:52;;;;;;;;;;;;;;;;;;4968527;28;19918;-60
2022/06/12 00:41:17;;;;;;;;;;;;;;;;;;4975122;28;19922;-58
2022/06/12 00:43:43;;;;;;;;;;;;;;;;;;4972059;28;19925;-57
2022/06/12 00:46:08;;;;;;;;;;;;;;;;;;4972585;28;19918;-57
2022/06/12 00:48:33;;;;;;;;;;;;;;;;;;4970025;28;19918;-57
2022/06/12 00:50:58;;;;;;;;;;;;;;;;;;4967608;28;19932;-58
2022/06/12 00:53:23;;;;;;;;;;;;;;;;;;4976003;28;19918;-58
2022/06/12 00:55:49;;;;;;;;;;;;;;;;;;4970922;28;19929;-59
2022/06/12 00:58:14;;;;;;;;;;;;;;;;;;4970518;28;19924;-58
2022/06/12 01:00:39;;;;;;;;;;;;;;;;;;4969105;28;19924;-59
2022/06/12 01:03:04;;;;;;;;;;;;;;;;;;4971112;28;19918;-58
2022/06/12 01:08:13;;;;;;;;;;;;;;;;;;4967299;28;19918;-59
2022/06/12 01:10:39;;;;;;;;;;;;;;;;;;4957061;28;19926;-61
2022/06/12 01:13:04;;;;;;;;;;;;;;;;;;4968438;28;19922;-61
2022/06/12 01:15:29;;;;;;;;;;;;;;;;;;4969083;28;19977;-60
2022/06/12 01:17:54;;;;;;;;;;;;;;;;;;4975712;28;20353;-58
2022/06/12 01:20:19;;;;;;;;;;;;;;;;;;4973082;28;19918;-59
2022/06/12 01:22:45;;;;;;;;;;;;;;;;;;4977350;28;20012;-58
2022/06/12 01:25:10;;;;;;;;;;;;;;;;;;4966755;28;19922;-60
2022/06/12 01:27:35;;;;;;;;;;;;;;;;;;4969548;28;20335;-59
2022/06/12 01:30:00;;;;;;;;;;;;;;;;;;4974040;28;19922;-60
2022/06/12 01:32:26;;;;;;;;;;;;;;;;;;4966700;28;19928;-63
2022/06/12 01:34:51;;;;;;;;;;;;;;;;;;4974051;28;19985;-59
2022/06/12 01:37:16;;;;;;;;;;;;;;;;;;4967275;28;19918;-60
2022/06/12 01:39:41;;;;;;;;;;;;;;;;;;4968090;28;19929;-60
2022/06/12 01:42:06;;;;;;;;;;;;;;;;;;4975031;28;19972;-58
2022/06/12 01:44:32;;;;;;;;;;;;;;;;;;4967321;28;19969;-59
2022/06/12 01:46:57;;;;;;;;;;;;;;;;;;4973965;28;19972;-58
2022/06/12 01:49:22;;;;;;;;;;;;;;;;;;4968185;28;20008;-59
2022/06/12 01:51:47;;;;;;;;;;;;;;;;;;4969870;28;19926;-59
2022/06/12 01:54:12;;;;;;;;;;;;;;;;;;4971921;28;19964;-59
2022/06/12 01:56:38;;;;;;;;;;;;;;;;;;4968271;28;20485;-59
2022/06/12 01:59:03;;;;;;;;;;;;;;;;;;4961719;28;20389;-60
2022/06/12 02:01:28;;;;;;;;;;;;;;;;;;4966098;28;20436;-59
2022/06/12 02:03:53;;;;;;;;;;;;;;;;;;4968141;28;20032;-58
2022/06/12 02:06:19;;;;;;;;;;;;;;;;;;4973181;28;20020;-58
2022/06/12 02:08:44;;;;;;;;;;;;;;;;;;4968455;28;19996;-58
2022/06/12 02:13:53;;;;;;;;;;;;;;;;;;4968057;28;20032;-59
2022/06/12 02:16:19;;;;;;;;;;;;;;;;;;4966168;28;19921;-59
2022/06/12 02:18:44;;;;;;;;;;;;;;;;;;4973971;28;19918;-58
2022/06/12 02:21:09;;;;;;;;;;;;;;;;;;4970532;28;19921;-58
2022/06/12 02:23:34;;;;;;;;;;;;;;;;;;4976933;28;19914;-60
2022/06/12 02:26:00;;;;;;;;;;;;;;;;;;4970786;28;19971;-58
2022/06/12 02:28:25;;;;;;;;;;;;;;;;;;4972775;28;20908;-59
2022/06/12 02:30:50;;;;;;;;;;;;;;;;;;4977125;28;19929;-58
2022/06/12 02:33:15;;;;;;;;;;;;;;;;;;4959564;28;19932;-59
2022/06/12 02:35:40;;;;;;;;;;;;;;;;;;4975180;28;19925;-61
2022/06/12 02:38:06;;;;;;;;;;;;;;;;;;4961003;28;19929;-60
2022/06/12 02:40:31;;;;;;;;;;;;;;;;;;4971730;28;19918;-59
2022/06/12 02:42:57;;;;;;;;;;;;;;;;;;4975684;28;19924;-59
2022/06/12 02:45:22;;;;;;;;;;;;;;;;;;4971758;28;19925;-59
2022/06/12 02:47:47;;;;;;;;;;;;;;;;;;4972582;28;19918;-59
2022/06/12 02:50:12;;;;;;;;;;;;;;;;;;4972481;28;19925;-59
2022/06/12 02:52:38;;;;;;;;;;;;;;;;;;4974754;28;19929;-59
2022/06/12 02:55:03;;;;;;;;;;;;;;;;;;4980637;28;19922;-59
2022/06/12 02:57:28;;;;;;;;;;;;;;;;;;4971380;28;19968;-60
2022/06/12 02:59:53;;;;;;;;;;;;;;;;;;4974576;28;19991;-59
2022/06/12 03:02:19;;;;;;;;;;;;;;;;;;4970563;28;19922;-59
2022/06/12 03:04:44;;;;;;;;;;;;;;;;;;4971725;28;19918;-59
2022/06/12 03:07:09;;;;;;;;;;;;;;;;;;4974944;28;19922;-60
2022/06/12 03:09:34;;;;;;;;;;;;;;;;;;4971300;28;19972;-59
2022/06/12 03:12:00;;;;;;;;;;;;;;;;;;4974238;28;19926;-61
2022/06/12 03:14:25;;;;;;;;;;;;;;;;;;4971678;28;20312;-60
2022/06/12 03:16:50;;;;;;;;;;;;;;;;;;4952707;28;19924;-60
2022/06/12 03:19:16;;;;;;;;;;;;;;;;;;4974854;28;20438;-60
2022/06/12 03:21:41;;;;;;;;;;;;;;;;;;4971746;28;19917;-59
2022/06/12 03:24:06;;;;;;;;;;;;;;;;;;4970832;28;19925;-61
2022/06/12 03:26:32;;;;;;;;;;;;;;;;;;4972346;28;20310;-59
2022/06/12 03:28:57;;;;;;;;;;;;;;;;;;4971954;28;19949;-59
2022/06/12 03:31:22;;;;;;;;;;;;;;;;;;4977724;28;20021;-60
2022/06/12 03:33:47;;;;;;;;;;;;;;;;;;4973725;28;19922;-60
2022/06/12 03:36:13;;;;;;;;;;;;;;;;;;4972908;28;20117;-62
2022/06/12 03:38:38;;;;;;;;;;;;;;;;;;4945502;28;20430;-60
2022/06/12 03:41:03;;;;;;;;;;;;;;;;;;4970190;28;19918;-60
2022/06/12 03:43:28;;;;;;;;;;;;;;;;;;4974736;28;19932;-59
2022/06/12 03:45:53;;;;;;;;;;;;;;;;;;4969594;28;19958;-59
2022/06/12 03:48:19;;;;;;;;;;;;;;;;;;4974935;28;20549;-60
2022/06/12 03:50:46;;;;;;;;;;;;;;;;;;4956347;28;20005;-58
2022/06/12 03:53:11;;;;;;;;;;;;;;;;;;4970202;28;19922;-60
2022/06/12 03:58:21;;;;;;;;;;;;;;;;;;4973093;28;19972;-59
2022/06/12 04:00:46;;;;;;;;;;;;;;;;;;4972911;28;19918;-60
2022/06/12 04:03:11;;;;;;;;;;;;;;;;;;4975450;28;19917;-60
2022/06/12 04:05:36;;;;;;;;;;;;;;;;;;4969724;28;19937;-58
2022/06/12 04:08:01;;;;;;;;;;;;;;;;;;4975783;28;20893;-59
2022/06/12 04:10:27;;;;;;;;;;;;;;;;;;4968276;28;20107;-58
2022/06/12 04:12:52;;;;;;;;;;;;;;;;;;4970345;28;20783;-58
2022/06/12 04:15:17;;;;;;;;;;;;;;;;;;4974385;28;19922;-59
2022/06/12 04:17:42;;;;;;;;;;;;;;;;;;4969879;28;19964;-58
2022/06/12 04:20:08;;;;;;;;;;;;;;;;;;4975886;28;19929;-59
2022/06/12 04:22:33;;;;;;;;;;;;;;;;;;4967943;28;19925;-58
2022/06/12 04:24:58;;;;;;;;;;;;;;;;;;4975586;28;19918;-59
2022/06/12 04:27:24;;;;;;;;;;;;;;;;;;4972717;28;20247;-60
2022/06/12 04:29:49;;;;;;;;;;;;;;;;;;4968246;28;19918;-59
2022/06/12 04:32:14;;;;;;;;;;;;;;;;;;4975794;28;19922;-60
2022/06/12 04:34:39;;;;;;;;;;;;;;;;;;4969790;28;19921;-59
2022/06/12 04:37:04;;;;;;;;;;;;;;;;;;4970571;28;19918;-59
2022/06/12 04:39:30;;;;;;;;;;;;;;;;;;4973947;28;19929;-59
2022/06/12 04:41:55;;;;;;;;;;;;;;;;;;4967652;28;20032;-58
2022/06/12 04:44:20;;;;;;;;;;;;;;;;;;4975080;28;20346;-59
2022/06/12 04:46:45;;;;;;;;;;;;;;;;;;4969786;28;20515;-59
2022/06/12 04:49:11;;;;;;;;;;;;;;;;;;4969101;28;20577;-59
2022/06/12 04:51:36;;;;;;;;;;;;;;;;;;4974220;28;20299;-58
2022/06/12 04:54:01;;;;;;;;;;;;;;;;;;4969421;28;19928;-59
2022/06/12 04:56:26;;;;;;;;;;;;;;;;;;4975343;28;19924;-59
2022/06/12 04:58:52;;;;;;;;;;;;;;;;;;4968114;28;19948;-58
2022/06/12 05:01:17;;;;;;;;;;;;;;;;;;4967820;28;19974;-61
2022/06/12 05:03:42;;;;;;;;;;;;;;;;;;4974722;28;19918;-58
2022/06/12 05:06:07;;;;;;;;;;;;;;;;;;4967769;28;20445;-59
2022/06/12 05:08:32;;;;;;;;;;;;;;;;;;4978047;28;20025;-59
2022/06/12 05:10:58;;;;;;;;;;;;;;;;;;4967449;28;19922;-59
2022/06/12 05:13:23;;;;;;;;;;;;;;;;;;4968869;28;19922;-60
2022/06/12 05:15:48;;;;;;;;;;;;;;;;;;4975085;28;19918;-59
2022/06/12 05:18:14;;;;;;;;;;;;;;;;;;4971903;28;20441;-59
2022/06/12 05:20:39;;;;;;;;;;;;;;;;;;4975344;28;20020;-58
2022/06/12 05:23:04;;;;;;;;;;;;;;;;;;4970108;28;19925;-58
2022/06/12 05:25:30;;;;;;;;;;;;;;;;;;4968427;28;20222;-59
2022/06/12 05:27:55;;;;;;;;;;;;;;;;;;4973501;28;20600;-59
2022/06/12 05:30:20;;;;;;;;;;;;;;;;;;4969010;28;20334;-60
2022/06/12 05:32:45;;;;;;;;;;;;;;;;;;4973461;28;19928;-60
2022/06/12 05:35:11;;;;;;;;;;;;;;;;;;4968687;28;19914;-58
2022/06/12 05:37:36;;;;;;;;;;;;;;;;;;4969039;28;20728;-59
2022/06/12 05:40:01;;;;;;;;;;;;;;;;;;4973731;28;19918;-60
2022/06/12 05:42:27;;;;;;;;;;;;;;;;;;4968614;28;19918;-60
2022/06/12 05:44:52;;;;;;;;;;;;;;;;;;4955342;28;20016;-60
2022/06/12 05:47:18;;;;;;;;;;;;;;;;;;4966940;28;19928;-59
2022/06/12 05:49:43;;;;;;;;;;;;;;;;;;4966260;28;19918;-59
2022/06/12 05:52:08;;;;;;;;;;;;;;;;;;4972907;28;20005;-60
2022/06/12 05:54:33;;;;;;;;;;;;;;;;;;4971252;28;19921;-59
2022/06/12 05:56:59;;;;;;;;;;;;;;;;;;4978790;28;20395;-58
2022/06/12 05:59:24;;;;;;;;;;;;;;;;;;4972692;28;20775;-60
2022/06/12 06:01:49;;;;;;;;;;;;;;;;;;4971166;28;20404;-60
2022/06/12 06:04:14;;;;;;;;;;;;;;;;;;4977484;28;20338;-60
2022/06/12 06:06:39;;;;;;;;;;;;;;;;;;4973215;28;20536;-59
2022/06/12 06:09:05;;;;;;;;;;;;;;;;;;4977587;28;20035;-61
2022/06/12 06:11:30;;;;;;;;;;;;;;;;;;4971508;28;20286;-59
2022/06/12 06:13:55;;;;;;;;;;;;;;;;;;4970391;28;20008;-59
2022/06/12 06:16:20;;;;;;;;;;;;;;;;;;4977400;28;20005;-59
2022/06/12 06:18:46;;;;;;;;;;;;;;;;;;4973049;28;19918;-59
2022/06/12 06:21:11;;;;;;;;;;;;;;;;;;4978757;28;19917;-59
2022/06/12 06:23:36;;;;;;;;;;;;;;;;;;4970114;28;20301;-59
2022/06/12 06:26:02;;;;;;;;;;;;;;;;;;4971363;28;19936;-59
2022/06/12 06:28:27;;;;;;;;;;;;;;;;;;4961908;28;19997;-60
2022/06/12 06:30:52;;;;;;;;;;;;;;;;;;4958878;28;19932;-59
2022/06/12 06:33:17;;;;;;;;;;;;;;;;;;4981207;28;19921;-59
2022/06/12 06:35:43;;;;;;;;;;;;;;;;;;4971528;28;19922;-59
2022/06/12 06:38:08;;;;;;;;;;;;;;;;;;4953969;28;20013;-60
2022/06/12 06:40:33;;;;;;;;;;;;;;;;;;4974562;28;19921;-60
2022/06/12 06:42:58;;;;;;;;;;;;;;;;;;4971387;28;19917;-59
2022/06/12 06:48:08;;;;;;;;;;;;;;;;;;4972064;28;19957;-59
2022/06/12 06:50:33;;;;;;;;;;;;;;;;;;4971527;28;20036;-59
2022/06/12 06:52:59;;;;;;;;;;;;;;;;;;4976100;28;20940;-59
2022/06/12 06:55:24;;;;;;;;;;;;;;;;;;4970821;28;20354;-60
2022/06/12 06:57:49;;;;;;;;;;;;;;;;;;4976728;28;19922;-59
2022/06/12 07:00:15;;;;;;;;;;;;;;;;;;4956536;28;19964;-58
2022/06/12 07:02:40;;;;;;;;;;;;;;;;;;4972463;28;19922;-61
2022/06/12 07:05:05;;;;;;;;;;;;;;;;;;4975967;28;19973;-59
2022/06/12 07:07:30;;;;;;;;;;;;;;;;;;4968078;28;19947;-61
2022/06/12 07:09:55;;;;;;;;;;;;;;;;;;4976767;28;19918;-60
2022/06/12 07:12:21;;;;;;;;;;;;;;;;;;4971727;28;19928;-60
2022/06/12 07:14:46;;;;;;;;;;;;;;;;;;4971414;28;19926;-59
2022/06/12 07:17:11;;;;;;;;;;;;;;;;;;4976385;28;20009;-59
2022/06/12 07:19:36;;;;;;;;;;;;;;;;;;4969525;28;19925;-59
2022/06/12 07:22:02;;;;;;;;;;;;;;;;;;4979678;28;19925;-59
2022/06/12 07:24:27;;;;;;;;;;;;;;;;;;4970860;28;19953;-59
2022/06/12 07:26:52;;;;;;;;;;;;;;;;;;4973064;28;20434;-59
2022/06/12 07:29:18;;;;;;;;;;;;;;;;;;4974453;28;19929;-59
2022/06/12 07:31:43;;;;;;;;;;;;;;;;;;4970688;28;19937;-60
2022/06/12 07:34:11;;;;;;;;;;;;;;;;;;4975197;28;19918;-60
2022/06/12 07:36:37;;;;;;;;;;;;;;;;;;4957664;28;19918;-61
2022/06/12 07:39:02;;;;;;;;;;;;;;;;;;4969189;28;19918;-59
2022/06/12 07:41:27;;;;;;;;;;;;;;;;;;4974377;28;19925;-61
2022/06/12 07:43:52;;;;;;;;;;;;;;;;;;4958636;28;20008;-60
2022/06/12 07:46:18;;;;;;;;;;;;;;;;;;4973900;28;20802;-61
2022/06/12 07:48:43;;;;;;;;;;;;;;;;;;4970713;28;20421;-60
2022/06/12 07:51:08;;;;;;;;;;;;;;;;;;4971325;28;20359;-60
2022/06/12 07:53:33;;;;;;;;;;;;;;;;;;4977673;28;19969;-59
2022/06/12 07:55:58;;;;;;;;;;;;;;;;;;4972192;28;19918;-60
2022/06/12 07:58:23;;;;;;;;;;;;;;;;;;4976838;28;19918;-61
2022/06/12 08:00:49;;;;;;;;;;;;;;;;;;4973864;28;19968;-60
2022/06/12 08:03:14;;;;;;;;;;;;;;;;;;4970257;28;19953;-60
2022/06/12 08:05:39;;;;;;;;;;;;;;;;;;4976164;28;20037;-61
2022/06/12 08:08:04;;;;;;;;;;;;;;;;;;4970092;28;19917;-61
2022/06/12 08:10:30;;;;;;;;;;;;;;;;;;4972802;28;19922;-61
2022/06/12 08:12:56;;;;;;;;;;;;;;;;;;4970321;28;19977;-61
2022/06/12 08:15:21;;;;;;;;;;;;;;;;;;4970592;28;20013;-60
2022/06/12 08:17:46;;;;;;;;;;;;;;;;;;4972253;28;19975;-61
2022/06/12 08:20:24;;;;;;;;;;;;;;;;;;4969730;28;19957;-60
2022/06/12 08:22:49;;;;;;;;;;;;;;;;;;4970738;28;19926;-60
2022/06/12 08:25:14;;;;;;;;;;;;;;;;;;4976482;28;19918;-60
2022/06/12 08:27:40;;;;;;;;;;;;;;;;;;4969932;28;20807;-60
2022/06/12 08:30:05;;;;;;;;;;;;;;;;;;4976807;28;19922;-60
2022/06/12 08:32:30;;;;;;;;;;;;;;;;;;4971313;28;19930;-59
2022/06/12 08:34:55;;;;;;;;;;;;;;;;;;4944335;28;19933;-60
2022/06/12 08:37:21;;;;;;;;;;;;;;;;;;4975558;28;19960;-60
2022/06/12 08:39:46;;;;;;;;;;;;;;;;;;4970636;28;20063;-60
2022/06/12 08:42:11;;;;;;;;;;;;;;;;;;4973472;28;20609;-60
2022/06/12 08:44:36;;;;;;;;;;;;;;;;;;4965918;28;19918;-61
2022/06/12 08:47:01;;;;;;;;;;;;;;;;;;4968622;28;19922;-60
2022/06/12 08:49:27;;;;;;;;;;;;;;;;;;4975947;28;20045;-61
2022/06/12 08:51:52;;;;;;;;;;;;;;;;;;4969167;28;20040;-60
2022/06/12 08:54:17;;;;;;;;;;;;;;;;;;4974118;28;20279;-60
2022/06/12 08:56:43;;;;;;;;;;;;;;;;;;4969760;28;20657;-60
2022/06/12 08:59:08;;;;;;;;;;;;;;;;;;4967155;28;19922;-60
2022/06/12 09:01:34;;;;;;;;;;;;;;;;;;4959795;28;19917;-60
2022/06/12 09:03:59;;;;;;;;;;;;;;;;;;4968534;28;20033;-64
2022/06/12 09:06:24;;;;;;;;;;;;;;;;;;4972552;28;19965;-60
2022/06/12 09:08:49;;;;;;;;;;;;;;;;;;4966973;28;20013;-60
2022/06/12 09:11:15;;;;;;;;;;;;;;;;;;4973298;28;19921;-61
2022/06/12 09:13:40;;;;;;;;;;;;;;;;;;4973064;28;19922;-61
2022/06/12 09:16:06;;;;;;;;;;;;;;;;;;4969875;28;19925;-61
2022/06/12 09:18:31;;;;;;;;;;;;;;;;;;4975970;28;20037;-60
2022/06/12 09:20:56;;;;;;;;;;;;;;;;;;4967049;28;19922;-60
2022/06/12 09:23:21;;;;;;;;;;;;;;;;;;4966465;28;20008;-59
2022/06/12 09:25:46;;;;;;;;;;;;;;;;;;4973511;28;19922;-60
2022/06/12 09:28:12;;;;;;;;;;;;;;;;;;4968797;28;19917;-60
2022/06/12 09:30:37;;;;;;;;;;;;;;;;;;4973265;28;19928;-60
2022/06/12 09:33:02;;;;;;;;;;;;;;;;;;4968088;28;19928;-60
2022/06/12 09:35:28;;;;;;;;;;;;;;;;;;4964850;28;19924;-59
2022/06/12 09:40:40;;;;;;;;;;;;;;;;;;4967994;28;20268;-60
2022/06/12 09:43:05;;;;;;;;;;;;;;;;;;4974166;28;19917;-60
2022/06/12 09:45:30;;;;;;;;;;;;;;;;;;4969038;28;19929;-60
2022/06/12 09:47:55;;;;;;;;;;;;;;;;;;4968310;28;19929;-60
2022/06/12 09:50:21;;;;;;;;;;;;;;;;;;4960319;28;19995;-61
2022/06/12 09:52:46;;;;;;;;;;;;;;;;;;4953502;28;19922;-60
2022/06/12 09:55:11;;;;;;;;;;;;;;;;;;4975722;28;20009;-60
2022/06/12 09:57:36;;;;;;;;;;;;;;;;;;4952647;28;20012;-61
2022/06/12 10:00:03;;;;;;;;;;;;;;;;;;4966768;28;19918;-60
2022/06/12 10:02:38;;;;;;;;;;;;;;;;;;4971070;28;19972;-61
2022/06/12 10:05:03;;;;;;;;;;;;;;;;;;4967818;28;19929;-61
2022/06/12 10:07:28;;;;;;;;;;;;;;;;;;4972452;28;19917;-62
2022/06/12 10:09:54;;;;;;;;;;;;;;;;;;4969319;28;19917;-61
2022/06/12 10:12:19;;;;;;;;;;;;;;;;;;4965152;28;20480;-62
2022/06/12 10:14:44;;;;;;;;;;;;;;;;;;4971621;28;20642;-60
2022/06/12 10:17:09;;;;;;;;;;;;;;;;;;4967913;28;19918;-61
2022/06/12 10:19:34;;;;;;;;;;;;;;;;;;4970740;28;19918;-62
2022/06/12 10:22:00;;;;;;;;;;;;;;;;;;4951447;28;19925;-61
2022/06/12 10:24:25;;;;;;;;;;;;;;;;;;4969366;28;20694;-61
2022/06/12 10:26:50;;;;;;;;;;;;;;;;;;4972721;28;19984;-60
2022/06/12 10:29:15;;;;;;;;;;;;;;;;;;4958038;28;19933;-61
2022/06/12 10:31:41;;;;;;;;;;;;;;;;;;4970915;28;19926;-61
2022/06/12 10:34:07;;;;;;;;;;;;;;;;;;4952439;28;19925;-61
2022/06/12 10:36:32;;;;;;;;;;;;;;;;;;4965861;28;19918;-61
2022/06/12 10:38:57;;;;;;;;;;;;;;;;;;4972063;28;20291;-61
2022/06/12 10:41:23;;;;;;;;;;;;;;;;;;4969562;28;20334;-60
2022/06/12 10:43:48;;;;;;;;;;;;;;;;;;4973510;28;20312;-61
2022/06/12 10:46:13;;;;;;;;;;;;;;;;;;4975896;28;20041;-59
2022/06/12 10:48:39;;;;;;;;;;;;;;;;;;4967599;28;19972;-59
2022/06/12 10:51:04;;;;;;;;;;;;;;;;;;4976782;28;19976;-60
2022/06/12 10:53:29;;;;;;;;;;;;;;;;;;4970301;28;19976;-61
2022/06/12 10:55:55;;;;;;;;;;;;;;;;;;4972039;28;19980;-61
2022/06/12 10:58:20;;;;;;;;;;;;;;;;;;4973287;28;19957;-60
2022/06/12 11:00:46;;;;;;;;;;;;;;;;;;4970020;28;19918;-61
2022/06/12 11:03:11;;;;;;;;;;;;;;;;;;4975914;28;19953;-60
2022/06/12 11:05:36;;;;;;;;;;;;;;;;;;4969881;28;20039;-61
2022/06/12 11:08:02;;;;;;;;;;;;;;;;;;4975897;28;19941;-60
2022/06/12 11:10:27;;;;;;;;;;;;;;;;;;4970744;28;19926;-60
2022/06/12 11:12:52;;;;;;;;;;;;;;;;;;4970128;28;20037;-61
2022/06/12 11:15:17;;;;;;;;;;;;;;;;;;4973665;28;19975;-60
2022/06/12 11:17:43;;;;;;;;;;;;;;;;;;4949344;28;20725;-61
2022/06/12 11:20:08;;;;;;;;;;;;;;;;;;4974043;28;19918;-61
2022/06/12 11:22:33;;;;;;;;;;;;;;;;;;4969732;28;19964;-60
2022/06/12 11:24:59;;;;;;;;;;;;;;;;;;4971131;28;19925;-60
2022/06/12 11:27:24;;;;;;;;;;;;;;;;;;4980295;28;19924;-60
2022/06/12 11:29:49;;;;;;;;;;;;;;;;;;4973009;28;20389;-61
2022/06/12 11:32:14;;;;;;;;;;;;;;;;;;4976905;28;19922;-61
2022/06/12 11:34:39;;;;;;;;;;;;;;;;;;4968990;28;20676;-61
2022/06/12 11:37:05;;;;;;;;;;;;;;;;;;4971838;28;19918;-60
2022/06/12 11:39:30;;;;;;;;;;;;;;;;;;4979434;28;19918;-61
2022/06/12 11:41:55;;;;;;;;;;;;;;;;;;4970516;28;19918;-61
2022/06/12 11:44:20;;;;;;;;;;;;;;;;;;4978603;28;20592;-61
2022/06/12 11:46:46;;;;;;;;;;;;;;;;;;4956689;28;20497;-62
2022/06/12 11:49:11;;;;;;;;;;;;;;;;;;4972626;28;20771;-62
2022/06/12 11:51:36;;;;;;;;;;;;;;;;;;4977702;28;19921;-61
2022/06/12 11:54:01;;;;;;;;;;;;;;;;;;4970265;28;19925;-61
2022/06/12 11:56:27;;;;;;;;;;;;;;;;;;4976092;28;19965;-61
2022/06/12 11:58:52;;;;;;;;;;;;;;;;;;4969770;28;20005;-62
2022/06/12 12:01:17;;;;;;;;;;;;;;;;;;4973457;28;19918;-63
2022/06/12 12:03:42;;;;;;;;;;;;;;;;;;4963895;28;19944;-62
2022/06/12 12:06:07;;;;;;;;;;;;;;;;;;4971989;28;20370;-61
2022/06/12 12:08:33;;;;;;;;;;;;;;;;;;4963800;28;19922;-62
2022/06/12 12:10:58;;;;;;;;;;;;;;;;;;4972151;28;19922;-62
2022/06/12 12:13:24;;;;;;;;;;;;;;;;;;4968502;28;20374;-61
2022/06/12 12:15:49;;;;;;;;;;;;;;;;;;4957994;28;20282;-61
2022/06/12 12:18:14;;;;;;;;;;;;;;;;;;4966564;28;20011;-61
2022/06/12 12:20:40;;;;;;;;;;;;;;;;;;4968811;28;19918;-63
2022/06/12 12:23:05;;;;;;;;;;;;;;;;;;4947067;28;19988;-61
2022/06/12 12:25:31;;;;;;;;;;;;;;;;;;4969345;28;19929;-62
2022/06/12 12:27:56;;;;;;;;;;;;;;;;;;4961521;28;19924;-62
2022/06/12 12:30:21;;;;;;;;;;;;;;;;;;4967495;28;19922;-62
2022/06/12 12:32:46;;;;;;;;;;;;;;;;;;4971843;28;19940;-61
2022/06/12 12:41:11;;;;;;;;;;;;;;;;;;4966186;28;19925;-61
2022/06/12 12:43:25;;;;;;;;;;;;;;;;;;4967642;28;19918;-63
2022/06/12 12:45:51;;;;;;;;;;;;;;;;;;4968161;28;19918;-62
2022/06/12 12:48:16;;;;;;;;;;;;;;;;;;4962343;28;19929;-62
2022/06/12 12:50:41;;;;;;;;;;;;;;;;;;4968229;28;19922;-62
2022/06/12 12:53:07;;;;;;;;;;;;;;;;;;4961627;28;20298;-63
2022/06/12 12:55:33;;;;;;;;;;;;;;;;;;4966769;28;19928;-62
2022/06/12 12:57:58;;;;;;;;;;;;;;;;;;4967651;28;19918;-62
2022/06/12 13:00:23;;;;;;;;;;;;;;;;;;4975075;28;19924;-62
2022/06/12 13:02:49;;;;;;;;;;;;;;;;;;4969552;28;19925;-62
2022/06/12 13:05:14;;;;;;;;;;;;;;;;;;4972613;28;19917;-61
2022/06/12 13:07:39;;;;;;;;;;;;;;;;;;4970303;28;19918;-65
2022/06/12 13:10:04;;;;;;;;;;;;;;;;;;4970777;28;19918;-62
2022/06/12 13:12:30;;;;;;;;;;;;;;;;;;4976024;28;19922;-62
2022/06/12 13:14:55;;;;;;;;;;;;;;;;;;4972325;28;20417;-61
2022/06/12 13:17:20;;;;;;;;;;;;;;;;;;4978159;28;19924;-62
2022/06/12 13:19:46;;;;;;;;;;;;;;;;;;4977361;28;19925;-62
2022/06/12 13:22:11;;;;;;;;;;;;;;;;;;4970091;28;19928;-62
2022/06/12 13:24:36;;;;;;;;;;;;;;;;;;4979063;28;19921;-62
2022/06/12 13:27:01;;;;;;;;;;;;;;;;;;4970038;28;19926;-62
2022/06/12 13:29:27;;;;;;;;;;;;;;;;;;4973976;28;19928;-61
2022/06/12 13:31:52;;;;;;;;;;;;;;;;;;4970990;28;19922;-62
2022/06/12 13:34:17;;;;;;;;;;;;;;;;;;4967454;28;19928;-61
2022/06/12 13:36:42;;;;;;;;;;;;;;;;;;4973135;28;19921;-62
2022/06/12 13:39:09;;;;;;;;;;;;;;;;;;4967440;28;19925;-62
2022/06/12 13:41:34;;;;;;;;;;;;;;;;;;4972860;28;19917;-62
2022/06/12 13:43:59;;;;;;;;;;;;;;;;;;4972103;28;19917;-61
2022/06/12 13:46:25;;;;;;;;;;;;;;;;;;4970674;28;19925;-61
2022/06/12 13:48:51;;;;;;;;;;;;;;;;;;4960389;28;19964;-61
2022/06/12 13:51:16;;;;;;;;;;;;;;;;;;4967523;28;20008;-61
2022/06/12 13:53:42;;;;;;;;;;;;;;;;;;4973050;28;20379;-61
2022/06/12 13:56:08;;;;;;;;;;;;;;;;;;4966213;28;19924;-61
2022/06/12 13:58:33;;;;;;;;;;;;;;;;;;4974639;28;19980;-61
2022/06/12 14:00:58;;;;;;;;;;;;;;;;;;4974302;28;19957;-62
2022/06/12 14:03:23;;;;;;;;;;;;;;;;;;4971718;28;20016;-61
2022/06/12 14:05:48;;;;;;;;;;;;;;;;;;4975939;28;19918;-61
2022/06/12 14:08:14;;;;;;;;;;;;;;;;;;4970417;28;20020;-61
2022/06/12 14:10:40;;;;;;;;;;;;;;;;;;4957117;28;19918;-61
2022/06/12 14:13:06;;;;;;;;;;;;;;;;;;4974941;28;20282;-62
2022/06/12 14:15:32;;;;;;;;;;;;;;;;;;4951598;28;19926;-61
2022/06/12 14:17:57;;;;;;;;;;;;;;;;;;4965564;28;19932;-61
2022/06/12 14:20:22;;;;;;;;;;;;;;;;;;4976306;28;19920;-61
2022/06/12 14:22:47;;;;;;;;;;;;;;;;;;4968715;28;19961;-62
2022/06/12 14:25:13;;;;;;;;;;;;;;;;;;4977339;28;19918;-63
2022/06/12 14:27:38;;;;;;;;;;;;;;;;;;4972819;28;19947;-61
2022/06/12 14:30:03;;;;;;;;;;;;;;;;;;4963341;28;20302;-62
2022/06/12 14:32:28;;;;;;;;;;;;;;;;;;4957688;28;19969;-63
2022/06/12 14:34:54;;;;;;;;;;;;;;;;;;4956263;28;19921;-61
2022/06/12 14:37:19;;;;;;;;;;;;;;;;;;4960290;28;20051;-60
2022/06/12 14:39:44;;;;;;;;;;;;;;;;;;4955865;28;19928;-60
2022/06/12 14:42:09;;;;;;;;;;;;;;;;;;4973608;28;19917;-61
2022/06/12 14:44:35;;;;;;;;;;;;;;;;;;4957733;28;20640;-60
2022/06/12 14:47:00;;;;;;;;;;;;;;;;;;4971895;28;20078;-62
2022/06/12 14:49:26;;;;;;;;;;;;;;;;;;4974677;28;19918;-61
2022/06/12 14:51:52;;;;;;;;;;;;;;;;;;4970020;28;20085;-60
2022/06/12 14:54:17;;;;;;;;;;;;;;;;;;4971981;28;20073;-62
2022/06/12 14:56:42;;;;;;;;;;;;;;;;;;4973029;28;20537;-61
2022/06/12 14:59:08;;;;;;;;;;;;;;;;;;4969776;28;19918;-62
2022/06/12 15:01:33;;;;;;;;;;;;;;;;;;4977246;28;20070;-61
2022/06/12 15:03:58;;;;;;;;;;;;;;;;;;4953766;28;19918;-62
2022/06/12 15:06:24;;;;;;;;;;;;;;;;;;4974359;28;19918;-63
2022/06/12 15:08:49;;;;;;;;;;;;;;;;;;4963192;28;19993;-62
2022/06/12 15:11:15;;;;;;;;;;;;;;;;;;4972453;28;19928;-62
2022/06/12 15:13:40;;;;;;;;;;;;;;;;;;4959802;28;20005;-63
2022/06/12 15:16:06;;;;;;;;;;;;;;;;;;4970889;28;19917;-62
2022/06/12 15:18:31;;;;;;;;;;;;;;;;;;4977407;28;19940;-64
2022/06/12 15:20:56;;;;;;;;;;;;;;;;;;4974653;28;20322;-61
2022/06/12 15:23:25;;;;;;;;;;;;;;;;;;4971146;28;20243;-61
2022/06/12 15:31:18;;;;;;;;;;;;;;;;;;4971851;28;19922;-63
2022/06/12 15:33:43;;;;;;;;;;;;;;;;;;4976319;28;19932;-62
2022/06/12 15:36:08;;;;;;;;;;;;;;;;;;4972404;28;19914;-63
2022/06/12 15:38:34;;;;;;;;;;;;;;;;;;4976620;28;19918;-63
2022/06/12 15:40:59;;;;;;;;;;;;;;;;;;4968037;28;19918;-63
2022/06/12 15:43:24;;;;;;;;;;;;;;;;;;4970048;28;19922;-62
2022/06/12 15:45:49;;;;;;;;;;;;;;;;;;4974339;28;19922;-62
2022/06/12 15:48:15;;;;;;;;;;;;;;;;;;4974973;28;19918;-62
2022/06/12 15:50:40;;;;;;;;;;;;;;;;;;4974850;28;19918;-62
2022/06/12 15:53:05;;;;;;;;;;;;;;;;;;4973450;28;19928;-62
2022/06/12 15:55:31;;;;;;;;;;;;;;;;;;4973883;28;19968;-62
2022/06/12 15:57:56;;;;;;;;;;;;;;;;;;4981212;28;20024;-61
2022/06/12 16:00:21;;;;;;;;;;;;;;;;;;4971791;28;20256;-62
2022/06/12 16:02:46;;;;;;;;;;;;;;;;;;4969304;28;20692;-61
2022/06/12 16:05:12;;;;;;;;;;;;;;;;;;4966375;28;20121;-62
2022/06/12 16:07:37;;;;;;;;;;;;;;;;;;4966356;28;20101;-61
2022/06/12 16:10:03;;;;;;;;;;;;;;;;;;4955931;28;19988;-61
2022/06/12 16:12:28;;;;;;;;;;;;;;;;;;4967932;28;19933;-61
2022/06/12 16:14:53;;;;;;;;;;;;;;;;;;4976673;28;19925;-61
2022/06/12 16:17:19;;;;;;;;;;;;;;;;;;4969066;28;19925;-60
2022/06/12 16:19:44;;;;;;;;;;;;;;;;;;4975932;28;19929;-62
2022/06/12 16:22:09;;;;;;;;;;;;;;;;;;4970620;28;20381;-60
2022/06/12 16:24:34;;;;;;;;;;;;;;;;;;4969606;28;20324;-60
2022/06/12 16:27:00;;;;;;;;;;;;;;;;;;4964375;28;20425;-60
2022/06/12 16:29:25;;;;;;;;;;;;;;;;;;4969000;28;19972;-61
2022/06/12 16:31:50;;;;;;;;;;;;;;;;;;4976731;28;19926;-61
2022/06/12 16:34:15;;;;;;;;;;;;;;;;;;4969186;28;19976;-61
2022/06/12 16:36:41;;;;;;;;;;;;;;;;;;4965780;28;19925;-61
2022/06/12 16:39:06;;;;;;;;;;;;;;;;;;4972252;28;19918;-60
2022/06/12 16:41:49;;;;;;;;;;;;;;;;;;4965358;28;19934;-61
2022/06/12 16:44:14;;;;;;;;;;;;;;;;;;4969194;28;20033;-61
2022/06/12 16:46:43;;;;;;;;;;;;;;;;;;4971084;28;21101;-60
2022/06/12 16:49:08;;;;;;;;;;;;;;;;;;4968094;28;20657;-61
2022/06/12 16:51:34;;;;;;;;;;;;;;;;;;4963898;28;19929;-60
2022/06/12 16:53:59;;;;;;;;;;;;;;;;;;4969231;28;19921;-61
2022/06/12 16:56:25;;;;;;;;;;;;;;;;;;4964364;28;19980;-60